Time;durP1;ratioP1;P1;durP2;ratioP2;P2;SDS_P1;SDS_P2;PMS_P1;PMS_P2;Temp;Humidity;BMP_temperature;BMP_pressure;BME280_temperature;BME280_humidity;BME280_pressure;Samples;Min_cycle;Max_cycle;Signal;HPM_P1;HPM_P2
2022/07/24 00:01:56;;;;;;;0.47;0.47;;;17.70;99.90;;;;;;5047181;28;20040;-66
2022/07/24 00:04:22;;;;;;;0.22;0.22;;;17.80;99.90;;;;;;5049648;28;20338;-66
2022/07/24 00:06:47;;;;;;;0.15;0.15;;;17.80;99.90;;;;;;5050394;28;20484;-66
2022/07/24 00:09:13;;;;;;;0.35;0.30;;;17.70;99.90;;;;;;5049413;28;20095;-66
2022/07/24 00:11:38;;;;;;;0.30;0.30;;;17.80;99.90;;;;;;5042224;28;20045;-66
2022/07/24 00:14:04;;;;;;;0.00;0.00;;;17.70;99.90;;;;;;5029614;28;20107;-66
2022/07/24 00:16:30;;;;;;;4.32;0.63;;;17.70;99.90;;;;;;5029398;28;20053;-66
2022/07/24 00:18:56;;;;;;;0.00;0.00;;;17.60;99.90;;;;;;5031181;28;20048;-66
2022/07/24 00:21:21;;;;;;;0.52;0.47;;;17.60;99.90;;;;;;5048900;28;20041;-66
2022/07/24 00:23:47;;;;;;;0.10;0.10;;;17.60;99.90;;;;;;5049901;28;20091;-66
2022/07/24 00:26:13;;;;;;;0.10;0.10;;;17.60;99.90;;;;;;5050047;28;20041;-66
2022/07/24 00:28:39;;;;;;;0.70;0.32;;;17.60;99.90;;;;;;5045130;28;20174;-66
2022/07/24 00:31:05;;;;;;;0.00;0.00;;;17.60;99.90;;;;;;5048050;28;20071;-66
2022/07/24 00:33:31;;;;;;;0.00;0.00;;;17.60;99.90;;;;;;5049992;28;20049;-66
2022/07/24 00:35:56;;;;;;;0.28;0.28;;;17.60;99.90;;;;;;5041313;28;20691;-66
2022/07/24 00:38:22;;;;;;;0.13;0.13;;;17.60;99.90;;;;;;5028955;28;20477;-66
2022/07/24 00:40:47;;;;;;;0.30;0.30;;;17.40;99.90;;;;;;5028493;28;20045;-65
2022/07/24 00:43:14;;;;;;;0.75;0.75;;;17.50;99.90;;;;;;5034145;28;20163;-66
2022/07/24 00:45:40;;;;;;;0.00;0.00;;;17.40;99.90;;;;;;5030174;28;20133;-66
2022/07/24 00:48:06;;;;;;;0.00;0.00;;;17.30;99.90;;;;;;5045226;28;20262;-66
2022/07/24 00:50:31;;;;;;;0.10;0.10;;;17.30;99.90;;;;;;5049069;28;20045;-66
2022/07/24 00:52:57;;;;;;;0.22;0.22;;;17.40;99.90;;;;;;5050013;28;20131;-66
2022/07/24 00:55:23;;;;;;;0.05;0.05;;;17.40;99.90;;;;;;5047639;28;20041;-66
2022/07/24 00:57:50;;;;;;;0.00;0.00;;;17.30;99.90;;;;;;5038722;28;20136;-66
2022/07/24 01:00:17;;;;;;;0.22;0.22;;;17.30;99.90;;;;;;5044780;28;20072;-66
2022/07/24 01:02:43;;;;;;;0.00;0.00;;;17.30;99.90;;;;;;5049166;28;20412;-66
2022/07/24 01:05:09;;;;;;;0.30;0.30;;;17.30;99.90;;;;;;5048055;28;20060;-66
2022/07/24 01:07:36;;;;;;;0.60;0.60;;;17.30;99.90;;;;;;5030945;28;20060;-65
2022/07/24 01:10:03;;;;;;;0.10;0.10;;;17.20;99.90;;;;;;5029379;28;20370;-66
2022/07/24 01:12:34;;;;;;;0.17;0.17;;;17.30;99.90;;;;;;5030904;28;20060;-66
2022/07/24 01:14:59;;;;;;;0.10;0.10;;;17.30;99.90;;;;;;5051895;28;20107;-65
2022/07/24 01:17:33;;;;;;;0.00;0.00;;;17.30;99.90;;;;;;5053146;28;20080;-66
2022/07/24 01:19:59;;;;;;;0.00;0.00;;;17.30;99.90;;;;;;5050265;28;20056;-66
2022/07/24 01:22:26;;;;;;;0.10;0.10;;;17.30;99.90;;;;;;5053168;28;20094;-66
2022/07/24 01:24:52;;;;;;;0.22;0.22;;;17.30;99.90;;;;;;5053195;28;20040;-66
2022/07/24 01:27:18;;;;;;;0.55;0.30;;;17.30;99.90;;;;;;5048982;28;20044;-66
2022/07/24 01:29:44;;;;;;;0.20;0.20;;;17.20;99.90;;;;;;5033102;28;20045;-66
2022/07/24 01:32:09;;;;;;;0.20;0.20;;;17.20;99.90;;;;;;5033700;28;20049;-66
2022/07/24 01:34:35;;;;;;;0.00;0.00;;;17.20;99.90;;;;;;5048923;28;20044;-66
2022/07/24 01:37:00;;;;;;;0.38;0.38;;;17.20;99.90;;;;;;5052256;28;20064;-66
2022/07/24 01:39:26;;;;;;;0.10;0.10;;;17.20;99.90;;;;;;5037681;28;20133;-66
2022/07/24 01:41:52;;;;;;;0.15;0.10;;;17.10;99.90;;;;;;5033619;28;20150;-66
2022/07/24 01:44:17;;;;;;;0.50;0.50;;;17.10;99.90;;;;;;5032429;28;20507;-65
2022/07/24 01:46:43;;;;;;;0.45;0.43;;;17.10;99.90;;;;;;5045244;28;20059;-66
2022/07/24 01:49:09;;;;;;;0.00;0.00;;;17.10;99.90;;;;;;5052619;28;20048;-66
2022/07/24 01:51:34;;;;;;;1.13;1.08;;;17.10;99.90;;;;;;5052091;28;20474;-66
2022/07/24 01:54:02;;;;;;;0.20;0.20;;;17.10;99.90;;;;;;5051814;28;20041;-66
2022/07/24 01:56:28;;;;;;;0.52;0.52;;;17.00;99.90;;;;;;5034102;28;20057;-66
2022/07/24 01:58:54;;;;;;;1.30;0.40;;;17.10;99.90;;;;;;5032327;28;20049;-66
2022/07/24 02:01:19;;;;;;;0.03;0.03;;;17.00;99.90;;;;;;5031543;28;20060;-66
2022/07/24 02:03:46;;;;;;;0.20;0.20;;;17.00;99.90;;;;;;5031588;28;20480;-66
2022/07/24 02:06:12;;;;;;;0.22;0.22;;;17.00;99.90;;;;;;5031981;28;20042;-66
2022/07/24 02:08:38;;;;;;;0.30;0.30;;;17.00;99.90;;;;;;5031767;28;20053;-66
2022/07/24 02:11:03;;;;;;;0.10;0.10;;;17.00;99.90;;;;;;5032121;28;20069;-66
2022/07/24 02:13:29;;;;;;;0.35;0.35;;;17.00;99.90;;;;;;5048844;28;20044;-66
2022/07/24 02:15:54;;;;;;;1.20;1.08;;;17.00;99.90;;;;;;5051756;28;20068;-66
2022/07/24 02:18:20;;;;;;;0.40;0.40;;;17.00;99.90;;;;;;5031260;28;20057;-66
2022/07/24 02:20:46;;;;;;;0.40;0.40;;;17.10;99.90;;;;;;5035176;28;20048;-66
2022/07/24 02:23:17;;;;;;;0.10;0.10;;;17.00;99.90;;;;;;5050656;28;20404;-66
2022/07/24 02:25:46;;;;;;;0.20;0.20;;;17.10;99.90;;;;;;5052038;28;20377;-66
2022/07/24 02:28:12;;;;;;;0.13;0.13;;;17.00;99.90;;;;;;5051562;28;20084;-66
2022/07/24 02:30:38;;;;;;;0.13;0.13;;;17.00;99.90;;;;;;5047975;28;20095;-66
2022/07/24 02:33:03;;;;;;;0.20;0.15;;;17.10;99.90;;;;;;5051530;28;20049;-65
2022/07/24 02:35:29;;;;;;;0.55;0.52;;;17.10;99.90;;;;;;5051635;28;20049;-65
2022/07/24 02:37:55;;;;;;;0.75;0.20;;;17.00;99.90;;;;;;5039834;28;20515;-66
2022/07/24 02:40:20;;;;;;;0.00;0.00;;;17.10;99.90;;;;;;5031147;28;20045;-66
2022/07/24 02:42:46;;;;;;;0.47;0.47;;;17.10;99.90;;;;;;5045486;28;20056;-66
2022/07/24 02:45:12;;;;;;;0.00;0.00;;;17.10;99.90;;;;;;5051492;28;20060;-65
2022/07/24 02:47:50;;;;;;;0.30;0.30;;;17.10;99.90;;;;;;5036511;28;20401;-66
2022/07/24 02:50:16;;;;;;;0.20;0.20;;;17.00;99.90;;;;;;5030676;28;20575;-66
2022/07/24 02:52:42;;;;;;;0.20;0.15;;;17.10;99.90;;;;;;5031193;28;20131;-66
2022/07/24 02:55:08;;;;;;;0.88;0.63;;;17.20;99.90;;;;;;5060814;28;20079;-66
2022/07/24 02:57:34;;;;;;;0.00;0.00;;;17.20;99.90;;;;;;5050387;28;20130;-65
2022/07/24 02:59:59;;;;;;;0.98;0.65;;;17.20;99.90;;;;;;5050997;28;20060;-66
2022/07/24 03:02:25;;;;;;;0.00;0.00;;;17.20;99.90;;;;;;5048519;28;20087;-66
2022/07/24 03:04:50;;;;;;;0.03;0.03;;;17.30;99.90;;;;;;5050636;28;20400;-66
2022/07/24 03:07:16;;;;;;;0.10;0.10;;;17.30;99.90;;;;;;5051253;28;20087;-66
2022/07/24 03:09:42;;;;;;;0.22;0.20;;;17.30;99.90;;;;;;5030444;28;20118;-65
2022/07/24 03:12:08;;;;;;;0.50;0.50;;;17.30;99.90;;;;;;5030364;28;20049;-66
2022/07/24 03:14:33;;;;;;;0.73;0.73;;;17.40;99.90;;;;;;5031240;28;20044;-65
2022/07/24 03:16:59;;;;;;;1.38;0.45;;;17.40;99.90;;;;;;5040535;28;20075;-66
2022/07/24 03:19:25;;;;;;;0.30;0.30;;;17.40;99.90;;;;;;5049866;28;20055;-66
2022/07/24 03:21:50;;;;;;;0.68;0.68;;;17.40;99.90;;;;;;5051360;28;20296;-66
2022/07/24 03:24:16;;;;;;;0.10;0.10;;;17.40;99.90;;;;;;5050498;28;20032;-66
2022/07/24 03:26:42;;;;;;;0.40;0.40;;;17.40;99.90;;;;;;5046777;28;20132;-66
2022/07/24 03:29:08;;;;;;;0.08;0.08;;;17.40;99.90;;;;;;5050534;28;20076;-66
2022/07/24 03:31:33;;;;;;;0.00;0.00;;;17.40;99.90;;;;;;5035873;28;20069;-66
2022/07/24 03:33:59;;;;;;;0.30;0.30;;;17.40;99.90;;;;;;5045958;28;20056;-66
2022/07/24 03:36:24;;;;;;;0.52;0.30;;;17.40;99.90;;;;;;5049696;28;20055;-66
2022/07/24 03:38:50;;;;;;;0.10;0.10;;;17.40;99.90;;;;;;5046067;28;20053;-66
2022/07/24 03:41:15;;;;;;;0.10;0.10;;;17.40;99.90;;;;;;5031771;28;20049;-66
2022/07/24 03:43:42;;;;;;;0.60;0.32;;;17.30;99.90;;;;;;5050029;28;20140;-66
2022/07/24 03:46:07;;;;;;;0.20;0.20;;;17.40;99.90;;;;;;5050135;28;20127;-66
2022/07/24 03:48:33;;;;;;;0.10;0.10;;;17.30;99.90;;;;;;5042453;28;20128;-66
2022/07/24 03:50:58;;;;;;;0.85;0.30;;;17.30;99.90;;;;;;5030173;28;20041;-66
2022/07/24 03:53:24;;;;;;;0.08;0.08;;;17.30;99.90;;;;;;5035462;28;20132;-66
2022/07/24 03:55:50;;;;;;;0.32;0.32;;;17.30;99.90;;;;;;5050399;28;20060;-66
2022/07/24 03:58:15;;;;;;;0.20;0.20;;;17.30;99.90;;;;;;5050113;28;20059;-66
2022/07/24 04:00:41;;;;;;;0.00;0.00;;;17.30;99.90;;;;;;5045326;28;20071;-65
2022/07/24 04:03:06;;;;;;;0.20;0.20;;;17.30;99.90;;;;;;5048318;28;20458;-66
2022/07/24 04:05:32;;;;;;;0.25;0.25;;;17.30;99.90;;;;;;5049950;28;20140;-66
2022/07/24 04:07:57;;;;;;;0.25;0.25;;;17.30;99.90;;;;;;5047027;28;20041;-66
2022/07/24 04:10:23;;;;;;;0.15;0.15;;;17.30;99.90;;;;;;5049659;28;20527;-66
2022/07/24 04:12:48;;;;;;;0.35;0.35;;;17.40;99.90;;;;;;5047899;28;20523;-65
2022/07/24 04:15:14;;;;;;;0.00;0.00;;;17.30;99.90;;;;;;5029452;28;20054;-66
2022/07/24 04:17:43;;;;;;;0.22;0.22;;;17.40;99.90;;;;;;5029991;28;20045;-66
2022/07/24 04:20:09;;;;;;;0.10;0.10;;;17.40;99.90;;;;;;5045038;28;20053;-66
2022/07/24 04:22:36;;;;;;;0.05;0.05;;;17.40;99.90;;;;;;5042222;28;20045;-66
2022/07/24 04:25:02;;;;;;;0.52;0.25;;;17.40;99.90;;;;;;5043494;28;20072;-66
2022/07/24 04:27:27;;;;;;;0.17;0.17;;;17.40;99.90;;;;;;5029791;28;20033;-66
2022/07/24 04:29:53;;;;;;;0.45;0.45;;;17.30;99.90;;;;;;5029899;28;20041;-66
2022/07/24 04:32:18;;;;;;;0.43;0.40;;;17.30;99.90;;;;;;5030376;28;20085;-66
2022/07/24 04:34:44;;;;;;;0.57;0.25;;;17.30;99.90;;;;;;5047193;28;20049;-66
2022/07/24 04:37:10;;;;;;;0.00;0.00;;;17.40;99.90;;;;;;5029284;28;20049;-66
2022/07/24 04:39:35;;;;;;;0.13;0.13;;;17.30;99.90;;;;;;5041095;28;20076;-66
2022/07/24 04:42:01;;;;;;;0.15;0.15;;;17.40;99.90;;;;;;5049401;28;20048;-66
2022/07/24 04:44:27;;;;;;;0.00;0.00;;;17.40;99.90;;;;;;5048254;28;20472;-66
2022/07/24 04:46:52;;;;;;;0.10;0.10;;;17.40;99.90;;;;;;5050538;28;20048;-66
2022/07/24 04:49:18;;;;;;;0.05;0.05;;;17.40;99.90;;;;;;5038981;28;20382;-66
2022/07/24 04:51:43;;;;;;;0.10;0.10;;;17.50;99.90;;;;;;5033711;28;20937;-66
2022/07/24 04:54:09;;;;;;;0.90;0.60;;;17.50;99.90;;;;;;5032046;28;20045;-66
2022/07/24 04:56:34;;;;;;;0.20;0.20;;;17.40;99.90;;;;;;5050152;28;20053;-66
2022/07/24 04:59:01;;;;;;;0.30;0.30;;;17.50;99.90;;;;;;5053282;28;20508;-66
2022/07/24 05:01:27;;;;;;;0.38;0.38;;;17.60;99.90;;;;;;5053229;28;20049;-66
2022/07/24 05:03:56;;;;;;;0.65;0.55;;;17.60;99.90;;;;;;5047785;28;20056;-66
2022/07/24 05:06:22;;;;;;;0.08;0.03;;;17.60;99.90;;;;;;5048844;28;20132;-66
2022/07/24 05:08:48;;;;;;;0.45;0.45;;;17.60;99.90;;;;;;5053503;28;20048;-66
2022/07/24 05:11:13;;;;;;;0.13;0.13;;;17.50;99.90;;;;;;5052590;28;20044;-66
2022/07/24 05:13:39;;;;;;;0.05;0.05;;;17.60;99.90;;;;;;5046223;28;20064;-66
2022/07/24 05:16:05;;;;;;;0.10;0.10;;;17.60;99.90;;;;;;5051189;28;20094;-66
2022/07/24 05:18:30;;;;;;;0.10;0.10;;;17.70;99.90;;;;;;5052323;28;20502;-66
2022/07/24 05:20:56;;;;;;;0.10;0.10;;;17.80;99.90;;;;;;5053322;28;20043;-66
2022/07/24 05:23:21;;;;;;;0.10;0.10;;;17.80;99.90;;;;;;5038563;28;20106;-66
2022/07/24 05:25:47;;;;;;;0.20;0.20;;;17.90;99.90;;;;;;5032909;28;20055;-66
2022/07/24 05:28:13;;;;;;;0.20;0.20;;;18.00;99.90;;;;;;5032916;28;20077;-66
2022/07/24 05:30:38;;;;;;;0.17;0.17;;;18.00;99.90;;;;;;5031264;28;20512;-66
2022/07/24 05:33:04;;;;;;;0.10;0.10;;;18.20;99.90;;;;;;5040500;28;20091;-66
2022/07/24 05:35:29;;;;;;;0.20;0.20;;;18.10;99.90;;;;;;5052850;28;20049;-66
2022/07/24 05:37:56;;;;;;;0.80;0.45;;;18.30;99.90;;;;;;5049534;28;20500;-66
2022/07/24 05:40:22;;;;;;;0.65;0.40;;;18.30;99.90;;;;;;5050265;28;20045;-66
2022/07/24 05:42:47;;;;;;;0.13;0.13;;;18.40;99.90;;;;;;5037023;28;20543;-66
2022/07/24 05:45:13;;;;;;;0.17;0.17;;;18.40;99.90;;;;;;5032731;28;20045;-66
2022/07/24 05:47:41;;;;;;;0.10;0.10;;;18.30;99.90;;;;;;5032342;28;20060;-66
2022/07/24 05:50:08;;;;;;;0.15;0.15;;;18.30;99.90;;;;;;5031532;28;20077;-66
2022/07/24 05:52:34;;;;;;;0.20;0.20;;;18.30;99.90;;;;;;5051087;28;20055;-66
2022/07/24 05:54:59;;;;;;;0.40;0.40;;;18.30;99.90;;;;;;5052439;28;20060;-66
2022/07/24 05:57:25;;;;;;;0.00;0.00;;;18.30;99.90;;;;;;5051898;28;20048;-66
2022/07/24 05:59:50;;;;;;;0.30;0.30;;;18.30;99.90;;;;;;5036547;28;20441;-66
2022/07/24 06:02:16;;;;;;;0.30;0.30;;;18.40;99.90;;;;;;5046566;28;20052;-66
2022/07/24 06:04:41;;;;;;;0.25;0.25;;;18.40;99.90;;;;;;5052234;28;20086;-66
2022/07/24 06:07:09;;;;;;;0.40;0.40;;;18.50;99.90;;;;;;5049325;28;20044;-66
2022/07/24 06:09:35;;;;;;;0.25;0.25;;;18.60;99.90;;;;;;5049850;28;20046;-66
2022/07/24 06:12:01;;;;;;;0.10;0.10;;;18.60;99.90;;;;;;5051784;28;20447;-66
2022/07/24 06:14:26;;;;;;;6.20;1.02;;;18.70;99.90;;;;;;5039518;28;20033;-66
2022/07/24 06:16:52;;;;;;;0.45;0.30;;;18.80;99.90;;;;;;5032497;28;20046;-66
2022/07/24 06:19:17;;;;;;;1.73;0.40;;;18.80;99.90;;;;;;5031888;28;20053;-66
2022/07/24 06:21:43;;;;;;;0.20;0.20;;;18.90;99.90;;;;;;5042568;28;20124;-66
2022/07/24 06:24:08;;;;;;;0.00;0.00;;;19.00;99.90;;;;;;5052006;28;20231;-66
2022/07/24 06:26:34;;;;;;;0.57;0.57;;;19.10;99.90;;;;;;5051660;28;20132;-66
2022/07/24 06:28:59;;;;;;;0.10;0.10;;;19.20;99.90;;;;;;5048520;28;20131;-66
2022/07/24 06:31:25;;;;;;;0.22;0.22;;;19.30;99.90;;;;;;5050259;28;20055;-66
2022/07/24 06:33:51;;;;;;;0.30;0.30;;;19.40;99.90;;;;;;5052076;28;20040;-66
2022/07/24 06:36:16;;;;;;;0.00;0.00;;;19.50;99.90;;;;;;5048661;28;20049;-66
2022/07/24 06:38:42;;;;;;;0.20;0.20;;;19.60;99.90;;;;;;5051635;28;20045;-66
2022/07/24 06:41:07;;;;;;;0.45;0.45;;;19.70;99.90;;;;;;5051425;28;20041;-66
2022/07/24 06:43:33;;;;;;;2.65;1.15;;;19.80;99.90;;;;;;5047754;28;20041;-66
2022/07/24 06:45:58;;;;;;;1.38;1.27;;;20.00;99.90;;;;;;5051651;28;20060;-66
2022/07/24 06:48:24;;;;;;;1.52;0.93;;;20.00;99.90;;;;;;5047394;28;20464;-66
2022/07/24 06:50:49;;;;;;;0.32;0.32;;;20.10;99.90;;;;;;5051151;28;20056;-66
2022/07/24 06:53:15;;;;;;;0.10;0.10;;;20.20;99.90;;;;;;5047855;28;20041;-66
2022/07/24 06:55:40;;;;;;;0.43;0.43;;;20.10;99.90;;;;;;5049011;28;20041;-66
2022/07/24 06:58:06;;;;;;;0.38;0.38;;;20.20;99.90;;;;;;5050001;28;20114;-66
2022/07/24 07:00:32;;;;;;;0.10;0.10;;;20.20;99.90;;;;;;5051092;28;20090;-66
2022/07/24 07:02:57;;;;;;;0.40;0.40;;;20.20;99.90;;;;;;5050703;28;20114;-66
2022/07/24 07:05:23;;;;;;;0.70;0.70;;;20.20;99.90;;;;;;5049048;28;20076;-66
2022/07/24 07:07:49;;;;;;;0.08;0.08;;;20.20;99.90;;;;;;5050946;28;20041;-66
2022/07/24 07:10:15;;;;;;;0.22;0.22;;;20.20;99.90;;;;;;5039825;28;20104;-66
2022/07/24 07:12:40;;;;;;;1.55;1.25;;;20.20;99.90;;;;;;5031110;28;20045;-66
2022/07/24 07:15:07;;;;;;;0.40;0.40;;;20.30;99.90;;;;;;5029999;28;20411;-66
2022/07/24 07:17:33;;;;;;;0.65;0.65;;;20.30;99.90;;;;;;5030464;28;20057;-66
2022/07/24 07:19:58;;;;;;;2.83;0.60;;;20.30;99.90;;;;;;5030956;28;20049;-66
2022/07/24 07:22:24;;;;;;;0.15;0.15;;;20.40;99.90;;;;;;5029366;28;20049;-66
2022/07/24 07:24:49;;;;;;;0.17;0.17;;;20.40;99.90;;;;;;5043892;28;20041;-66
2022/07/24 07:27:15;;;;;;;0.00;0.00;;;20.50;99.90;;;;;;5050570;28;20150;-66
2022/07/24 07:29:41;;;;;;;0.10;0.10;;;20.50;99.90;;;;;;5048329;28;20086;-66
2022/07/24 07:32:06;;;;;;;0.03;0.03;;;20.50;99.90;;;;;;5046542;28;20037;-66
2022/07/24 07:34:32;;;;;;;0.68;0.57;;;20.50;99.90;;;;;;5029336;28;20045;-66
2022/07/24 07:36:57;;;;;;;0.10;0.10;;;20.50;99.90;;;;;;5029156;28;20037;-66
2022/07/24 07:39:23;;;;;;;0.20;0.20;;;20.50;99.90;;;;;;5030012;28;20136;-66
2022/07/24 07:41:48;;;;;;;0.05;0.05;;;20.50;99.90;;;;;;5037312;28;20385;-66
2022/07/24 07:44:14;;;;;;;0.28;0.28;;;20.50;99.90;;;;;;5048028;28;20047;-66
2022/07/24 07:46:40;;;;;;;0.00;0.00;;;20.50;99.90;;;;;;5048388;28;20139;-66
2022/07/24 07:49:05;;;;;;;0.20;0.20;;;20.50;99.90;;;;;;5050332;28;20037;-66
2022/07/24 07:51:31;;;;;;;0.52;0.40;;;20.50;99.90;;;;;;5048163;28;20044;-66
2022/07/24 07:53:56;;;;;;;0.17;0.17;;;20.50;99.90;;;;;;5049975;28;20033;-66
2022/07/24 07:56:22;;;;;;;0.25;0.25;;;20.60;99.90;;;;;;5049699;28;20150;-66
2022/07/24 07:58:48;;;;;;;0.10;0.10;;;20.60;99.90;;;;;;5033329;28;20037;-66
2022/07/24 08:01:13;;;;;;;0.10;0.10;;;20.60;99.90;;;;;;5029577;28;20041;-66
2022/07/24 08:03:39;;;;;;;1.38;0.35;;;20.60;99.90;;;;;;5029105;28;20512;-66
2022/07/24 08:06:04;;;;;;;0.00;0.00;;;20.70;99.90;;;;;;5029902;28;20877;-66
2022/07/24 08:08:30;;;;;;;0.10;0.10;;;20.80;99.90;;;;;;5029035;28;20472;-66
2022/07/24 08:10:56;;;;;;;0.10;0.10;;;20.80;99.90;;;;;;5049492;28;20045;-66
2022/07/24 08:13:21;;;;;;;3.42;1.38;;;20.90;99.90;;;;;;5049424;28;20045;-66
2022/07/24 08:15:47;;;;;;;0.10;0.10;;;20.90;99.90;;;;;;5050147;28;20073;-66
2022/07/24 08:18:12;;;;;;;0.10;0.10;;;20.90;99.90;;;;;;5047392;28;20033;-66
2022/07/24 08:20:38;;;;;;;0.30;0.25;;;21.00;99.90;;;;;;5049530;28;20055;-65
2022/07/24 08:23:04;;;;;;;0.00;0.00;;;21.10;99.90;;;;;;5037461;28;20416;-66
2022/07/24 08:25:29;;;;;;;0.10;0.10;;;21.30;99.90;;;;;;5029820;28;20099;-66
2022/07/24 08:27:55;;;;;;;0.10;0.10;;;21.40;99.90;;;;;;5029895;28;20045;-66
2022/07/24 08:30:21;;;;;;;0.03;0.03;;;21.60;99.90;;;;;;5029207;28;20034;-67
2022/07/24 08:32:47;;;;;;;0.10;0.10;;;21.60;99.90;;;;;;5035942;28;20049;-66
2022/07/24 08:35:14;;;;;;;0.25;0.25;;;21.70;99.90;;;;;;5049492;28;20045;-66
2022/07/24 08:37:41;;;;;;;0.00;0.00;;;21.80;99.90;;;;;;5049851;28;20041;-66
2022/07/24 08:40:08;;;;;;;0.30;0.30;;;21.80;99.90;;;;;;5046150;28;20056;-67
2022/07/24 08:42:35;;;;;;;0.00;0.00;;;21.90;99.90;;;;;;5038064;28;20050;-66
2022/07/24 08:45:00;;;;;;;0.00;0.00;;;22.00;99.90;;;;;;5029732;28;20037;-66
2022/07/24 08:47:27;;;;;;;0.32;0.32;;;22.00;99.90;;;;;;5029755;28;20091;-66
2022/07/24 08:49:54;;;;;;;0.98;0.40;;;22.10;99.90;;;;;;5030092;28;20418;-68
2022/07/24 08:52:24;;;;;;;0.10;0.10;;;22.10;99.90;;;;;;5027861;28;20146;-67
2022/07/24 08:54:50;;;;;;;0.03;0.03;;;22.20;99.90;;;;;;5028756;28;20049;-67
2022/07/24 08:57:16;;;;;;;0.00;0.00;;;22.20;99.90;;;;;;5042084;28;20068;-67
2022/07/24 08:59:41;;;;;;;1.02;0.20;;;22.20;99.90;;;;;;5049396;28;20387;-67
2022/07/24 09:02:07;;;;;;;0.40;0.40;;;22.30;99.90;;;;;;5048097;28;20049;-68
2022/07/24 09:04:37;;;;;;;0.10;0.10;;;22.30;99.90;;;;;;5029690;28;20512;-68
2022/07/24 09:07:06;;;;;;;0.22;0.22;;;22.30;99.90;;;;;;5027733;28;20109;-68
2022/07/24 09:09:32;;;;;;;0.20;0.20;;;22.40;99.90;;;;;;5029057;28;20052;-68
2022/07/24 09:12:17;;;;;;;0.13;0.13;;;22.40;99.90;;;;;;5029736;28;20392;-68
2022/07/24 09:14:45;;;;;;;0.10;0.10;;;22.50;99.90;;;;;;5027345;28;20567;-68
2022/07/24 09:17:16;;;;;;;0.35;0.35;;;22.60;99.90;;;;;;5028860;28;20073;-68
2022/07/24 09:19:49;;;;;;;0.75;0.30;;;22.60;99.90;;;;;;5027691;28;20068;-68
2022/07/24 09:22:35;;;;;;;0.15;0.15;;;22.70;99.90;;;;;;5027675;28;20123;-68
2022/07/24 09:25:06;;;;;;;0.00;0.00;;;22.70;99.90;;;;;;5029076;28;20045;-68
2022/07/24 09:27:33;;;;;;;0.43;0.20;;;22.70;99.90;;;;;;5026735;28;20049;-68
2022/07/24 09:29:59;;;;;;;0.05;0.05;;;22.80;99.90;;;;;;5029322;28;20041;-68
2022/07/24 09:32:25;;;;;;;0.65;0.60;;;22.90;99.90;;;;;;5031887;28;20484;-68
2022/07/24 09:34:53;;;;;;;0.32;0.20;;;23.00;99.90;;;;;;5036108;28;20124;-68
2022/07/24 09:37:19;;;;;;;0.15;0.15;;;23.00;99.90;;;;;;5031772;28;20045;-69
2022/07/24 09:39:45;;;;;;;0.20;0.20;;;23.20;99.90;;;;;;5032126;28;20053;-68
2022/07/24 09:42:11;;;;;;;0.00;0.00;;;23.20;99.90;;;;;;5042019;28;20047;-67
2022/07/24 09:44:38;;;;;;;0.20;0.20;;;23.20;99.90;;;;;;5052526;28;20072;-67
2022/07/24 09:47:07;;;;;;;0.00;0.00;;;23.40;99.90;;;;;;5048804;28;20048;-67
2022/07/24 09:49:33;;;;;;;1.67;0.30;;;23.90;99.90;;;;;;5052683;28;20047;-67
2022/07/24 09:52:05;;;;;;;0.10;0.10;;;24.20;99.90;;;;;;5052419;28;20067;-67
2022/07/24 09:54:36;;;;;;;0.10;0.10;;;24.30;99.90;;;;;;5049156;28;20045;-67
2022/07/24 09:57:21;;;;;;;1.38;0.30;;;24.30;99.90;;;;;;5047662;28;20053;-68
2022/07/24 09:59:57;;;;;;;0.10;0.10;;;24.00;99.90;;;;;;5032608;28;20415;-67
2022/07/24 10:02:25;;;;;;;0.32;0.32;;;23.90;99.90;;;;;;5032320;28;20085;-66
2022/07/24 10:04:51;;;;;;;0.30;0.30;;;23.60;99.90;;;;;;5033553;28;20053;-65
2022/07/24 10:07:21;;;;;;;2.30;0.28;;;23.50;99.90;;;;;;5030830;28;20393;-65
2022/07/24 10:09:50;;;;;;;0.35;0.35;;;23.40;99.90;;;;;;5031336;28;20080;-66
2022/07/24 10:12:21;;;;;;;0.10;0.10;;;23.30;99.90;;;;;;5031517;28;20116;-66
2022/07/24 10:14:50;;;;;;;0.10;0.10;;;23.30;99.90;;;;;;5032527;28;20065;-66
2022/07/24 10:17:16;;;;;;;1.75;0.77;;;23.30;99.90;;;;;;5032064;28;20489;-66
2022/07/24 10:19:51;;;;;;;0.22;0.22;;;23.40;99.90;;;;;;5032378;28;20172;-66
2022/07/24 10:22:22;;;;;;;0.00;0.00;;;23.50;99.90;;;;;;5044226;28;20401;-66
2022/07/24 10:25:09;;;;;;;0.47;0.47;;;23.60;99.90;;;;;;5052189;28;20060;-66
2022/07/24 10:27:38;;;;;;;0.13;0.13;;;23.60;99.90;;;;;;5038579;28;20057;-65
2022/07/24 10:30:09;;;;;;;0.00;0.00;;;23.70;99.90;;;;;;5031740;28;20041;-66
2022/07/24 10:32:36;;;;;;;0.10;0.10;;;23.80;99.90;;;;;;5030268;28;20037;-66
2022/07/24 10:35:15;;;;;;;0.55;0.40;;;23.90;99.90;;;;;;5042479;28;20366;-65
2022/07/24 10:38:02;;;;;;;0.55;0.55;;;24.10;99.90;;;;;;5051632;28;20381;-66
2022/07/24 10:40:45;;;;;;;0.10;0.10;;;24.20;99.90;;;;;;5049886;28;20120;-66
2022/07/24 10:43:18;;;;;;;0.10;0.10;;;24.20;99.90;;;;;;5035251;28;20052;-66
2022/07/24 10:45:45;;;;;;;8.48;2.92;;;24.30;99.90;;;;;;5031234;28;20481;-66
2022/07/24 10:48:20;;;;;;;0.20;0.20;;;24.30;99.90;;;;;;5029442;28;20879;-66
2022/07/24 10:51:00;;;;;;;0.00;0.00;;;24.30;99.90;;;;;;5032124;28;20124;-66
2022/07/24 10:53:29;;;;;;;0.00;0.00;;;24.30;99.90;;;;;;5047701;28;20557;-67
2022/07/24 10:56:17;;;;;;;0.10;0.10;;;24.20;99.90;;;;;;5050266;28;20106;-67
2022/07/24 10:58:57;;;;;;;0.10;0.10;;;24.20;99.90;;;;;;5051290;28;20207;-65
2022/07/24 11:01:39;;;;;;;0.00;0.00;;;24.30;99.90;;;;;;5049362;28;20041;-66
2022/07/24 11:04:25;;;;;;;0.20;0.20;;;24.40;99.90;;;;;;5050357;28;20045;-66
2022/07/24 11:06:56;;;;;;;0.10;0.10;;;24.60;99.90;;;;;;5036711;28;20044;-66
2022/07/24 11:09:27;;;;;;;0.00;0.00;;;24.80;99.90;;;;;;5045567;28;20140;-66
2022/07/24 11:11:52;;;;;;;0.28;0.28;;;25.20;99.90;;;;;;5030545;28;20134;-67
2022/07/24 11:14:24;;;;;;;0.08;0.08;;;25.30;99.90;;;;;;5030659;28;20497;-67
2022/07/24 11:16:51;;;;;;;0.93;0.20;;;25.40;99.90;;;;;;5044996;28;20126;-66
2022/07/24 11:19:16;;;;;;;8.48;2.90;;;25.40;99.90;;;;;;5030855;28;20052;-66
2022/07/24 11:21:47;;;;;;;0.55;0.20;;;25.30;99.90;;;;;;5030943;28;20042;-66
2022/07/24 11:24:21;;;;;;;0.20;0.20;;;25.20;99.90;;;;;;5028696;28;20057;-66
2022/07/24 11:26:57;;;;;;;8.95;1.65;;;25.20;99.90;;;;;;5030872;28;20041;-66
2022/07/24 11:29:26;;;;;;;0.00;0.00;;;25.30;99.90;;;;;;5030719;28;20052;-67
2022/07/24 11:31:57;;;;;;;0.10;0.10;;;25.40;99.90;;;;;;5028564;28;20566;-67
2022/07/24 11:34:24;;;;;;;0.00;0.00;;;25.70;99.90;;;;;;5049495;28;20484;-66
2022/07/24 11:36:52;;;;;;;0.38;0.22;;;26.00;99.90;;;;;;5044280;28;20053;-67
2022/07/24 11:39:18;;;;;;;0.20;0.20;;;26.20;99.90;;;;;;5029649;28;20479;-67
2022/07/24 11:41:59;;;;;;;0.00;0.00;;;26.20;99.90;;;;;;5036265;28;20047;-67
2022/07/24 11:44:28;;;;;;;2.20;1.08;;;26.30;99.90;;;;;;5044540;28;20049;-66
2022/07/24 11:46:56;;;;;;;0.10;0.10;;;26.30;99.90;;;;;;5030761;28;20048;-67
2022/07/24 11:49:23;;;;;;;0.03;0.03;;;26.60;99.90;;;;;;5029676;28;20041;-67
2022/07/24 11:51:50;;;;;;;0.00;0.00;;;26.70;99.90;;;;;;5028935;28;20033;-66
2022/07/24 11:54:24;;;;;;;0.22;0.20;;;26.60;99.90;;;;;;5030015;28;20411;-66
2022/07/24 11:56:54;;;;;;;0.38;0.38;;;26.90;99.90;;;;;;5028226;28;20057;-67
2022/07/24 11:59:32;;;;;;;0.50;0.38;;;27.10;99.90;;;;;;5029193;28;20059;-66
2022/07/24 12:02:07;;;;;;;0.10;0.10;;;27.20;99.90;;;;;;5030042;28;20077;-67
2022/07/24 12:04:33;;;;;;;0.10;0.10;;;27.20;99.90;;;;;;5030299;28;20076;-67
2022/07/24 12:06:59;;;;;;;0.20;0.20;;;27.30;99.90;;;;;;5027749;28;20048;-67
2022/07/24 12:09:25;;;;;;;1.25;0.28;;;27.40;99.90;;;;;;5029716;28;20038;-67
2022/07/24 12:11:51;;;;;;;0.10;0.05;;;27.00;99.90;;;;;;5032725;28;20117;-67
2022/07/24 12:14:19;;;;;;;0.00;0.00;;;26.80;99.90;;;;;;5049077;28;20438;-67
2022/07/24 12:16:53;;;;;;;0.10;0.10;;;27.20;99.90;;;;;;5048562;28;20052;-67
2022/07/24 12:19:24;;;;;;;1.75;1.13;;;27.50;99.90;;;;;;5049335;28;20123;-67
2022/07/24 12:21:52;;;;;;;0.30;0.22;;;27.40;99.90;;;;;;5047661;28;20044;-66
2022/07/24 12:24:19;;;;;;;0.10;0.10;;;27.50;99.90;;;;;;5047651;28;20052;-66
2022/07/24 12:26:56;;;;;;;0.65;0.28;;;27.40;99.90;;;;;;5049262;28;20041;-67
2022/07/24 12:29:23;;;;;;;0.00;0.00;;;27.20;99.90;;;;;;5049410;28;20052;-66
2022/07/24 12:31:52;;;;;;;0.30;0.28;;;27.60;99.90;;;;;;5047587;28;20045;-66
2022/07/24 12:34:17;;;;;;;0.43;0.43;;;27.70;99.90;;;;;;5035556;28;20057;-66
2022/07/24 12:36:44;;;;;;;0.00;0.00;;;27.70;99.90;;;;;;5029464;28;20162;-67
2022/07/24 12:39:11;;;;;;;0.00;0.00;;;28.00;99.90;;;;;;5032247;28;20092;-67
2022/07/24 12:41:45;;;;;;;0.00;0.00;;;28.20;99.90;;;;;;5048763;28;20575;-67
2022/07/24 12:44:11;;;;;;;0.10;0.10;;;28.20;99.90;;;;;;5049249;28;20508;-66
2022/07/24 12:46:47;;;;;;;0.08;0.08;;;28.20;99.90;;;;;;5042688;28;20111;-67
2022/07/24 12:49:13;;;;;;;0.20;0.10;;;28.30;99.90;;;;;;5028692;28;20049;-67